sensor_id;sensor_type;location;lat;lon;timestamp;P1;durP1;ratioP1;P2;durP2;ratioP2
77769;SDS011;66961;51.482;9.160;2023-04-25T00:02:01;13.27;;;5.90;;
77769;SDS011;66961;51.482;9.160;2023-04-25T00:04:26;10.73;;;5.87;;
77769;SDS011;66961;51.482;9.160;2023-04-25T00:06:53;12.20;;;7.00;;
77769;SDS011;66961;51.482;9.160;2023-04-25T00:09:19;13.98;;;7.00;;
77769;SDS011;66961;51.482;9.160;2023-04-25T00:11:44;14.73;;;7.47;;
77769;SDS011;66961;51.482;9.160;2023-04-25T00:14:09;17.57;;;8.43;;
77769;SDS011;66961;51.482;9.160;2023-04-25T00:16:34;14.87;;;6.83;;
77769;SDS011;66961;51.482;9.160;2023-04-25T00:19:00;13.37;;;6.70;;
77769;SDS011;66961;51.482;9.160;2023-04-25T00:21:25;15.30;;;7.30;;
77769;SDS011;66961;51.482;9.160;2023-04-25T00:23:52;14.43;;;8.13;;
77769;SDS011;66961;51.482;9.160;2023-04-25T00:26:18;14.60;;;7.00;;
77769;SDS011;66961;51.482;9.160;2023-04-25T00:28:43;14.18;;;6.97;;
77769;SDS011;66961;51.482;9.160;2023-04-25T00:31:08;11.80;;;7.10;;
77769;SDS011;66961;51.482;9.160;2023-04-25T00:33:33;14.67;;;7.90;;
77769;SDS011;66961;51.482;9.160;2023-04-25T00:35:59;13.90;;;7.73;;
77769;SDS011;66961;51.482;9.160;2023-04-25T00:38:24;16.87;;;8.40;;
77769;SDS011;66961;51.482;9.160;2023-04-25T00:40:49;13.80;;;6.53;;
77769;SDS011;66961;51.482;9.160;2023-04-25T00:43:14;15.70;;;7.90;;
77769;SDS011;66961;51.482;9.160;2023-04-25T00:45:40;13.63;;;7.90;;
77769;SDS011;66961;51.482;9.160;2023-04-25T00:48:05;21.17;;;8.75;;
77769;SDS011;66961;51.482;9.160;2023-04-25T00:50:32;16.02;;;8.02;;
77769;SDS011;66961;51.482;9.160;2023-04-25T00:52:58;14.70;;;6.90;;
77769;SDS011;66961;51.482;9.160;2023-04-25T00:55:24;15.93;;;7.53;;
77769;SDS011;66961;51.482;9.160;2023-04-25T00:57:49;19.95;;;8.15;;
77769;SDS011;66961;51.482;9.160;2023-04-25T01:00:14;17.47;;;8.73;;
77769;SDS011;66961;51.482;9.160;2023-04-25T01:02:40;17.75;;;8.15;;
77769;SDS011;66961;51.482;9.160;2023-04-25T01:05:06;18.02;;;7.63;;
77769;SDS011;66961;51.482;9.160;2023-04-25T01:07:31;18.33;;;8.63;;
77769;SDS011;66961;51.482;9.160;2023-04-25T01:09:57;19.03;;;7.73;;
77769;SDS011;66961;51.482;9.160;2023-04-25T01:12:23;16.90;;;7.88;;
77769;SDS011;66961;51.482;9.160;2023-04-25T01:14:48;17.83;;;7.70;;
77769;SDS011;66961;51.482;9.160;2023-04-25T01:17:14;17.73;;;8.70;;
77769;SDS011;66961;51.482;9.160;2023-04-25T01:19:47;16.50;;;7.75;;
77769;SDS011;66961;51.482;9.160;2023-04-25T01:22:12;15.13;;;7.90;;
77769;SDS011;66961;51.482;9.160;2023-04-25T01:24:37;16.02;;;8.00;;
77769;SDS011;66961;51.482;9.160;2023-04-25T01:27:03;16.88;;;7.40;;
77769;SDS011;66961;51.482;9.160;2023-04-25T01:29:29;16.83;;;7.40;;
77769;SDS011;66961;51.482;9.160;2023-04-25T01:31:55;17.48;;;8.60;;
77769;SDS011;66961;51.482;9.160;2023-04-25T01:34:21;20.70;;;7.88;;
77769;SDS011;66961;51.482;9.160;2023-04-25T01:36:49;22.53;;;7.93;;
77769;SDS011;66961;51.482;9.160;2023-04-25T01:39:15;19.85;;;7.93;;
77769;SDS011;66961;51.482;9.160;2023-04-25T01:41:41;19.85;;;7.72;;
77769;SDS011;66961;51.482;9.160;2023-04-25T01:44:07;17.40;;;8.10;;
77769;SDS011;66961;51.482;9.160;2023-04-25T01:46:33;16.37;;;7.47;;
77769;SDS011;66961;51.482;9.160;2023-04-25T01:48:59;18.73;;;7.78;;
77769;SDS011;66961;51.482;9.160;2023-04-25T01:51:24;16.53;;;7.97;;
77769;SDS011;66961;51.482;9.160;2023-04-25T01:53:49;22.03;;;9.13;;
77769;SDS011;66961;51.482;9.160;2023-04-25T01:56:15;16.52;;;6.78;;
77769;SDS011;66961;51.482;9.160;2023-04-25T01:58:42;16.67;;;6.63;;
77769;SDS011;66961;51.482;9.160;2023-04-25T02:01:08;18.13;;;7.93;;
77769;SDS011;66961;51.482;9.160;2023-04-25T02:03:34;19.47;;;7.40;;
77769;SDS011;66961;51.482;9.160;2023-04-25T02:05:59;13.70;;;7.30;;
77769;SDS011;66961;51.482;9.160;2023-04-25T02:08:24;18.47;;;7.43;;
77769;SDS011;66961;51.482;9.160;2023-04-25T02:10:49;16.43;;;7.13;;
77769;SDS011;66961;51.482;9.160;2023-04-25T02:13:15;15.40;;;6.60;;
77769;SDS011;66961;51.482;9.160;2023-04-25T02:15:40;18.95;;;8.57;;
77769;SDS011;66961;51.482;9.160;2023-04-25T02:18:05;16.17;;;7.47;;
77769;SDS011;66961;51.482;9.160;2023-04-25T02:20:31;15.83;;;6.90;;
77769;SDS011;66961;51.482;9.160;2023-04-25T02:22:57;13.38;;;6.85;;
77769;SDS011;66961;51.482;9.160;2023-04-25T02:25:22;14.97;;;7.30;;
77769;SDS011;66961;51.482;9.160;2023-04-25T02:27:48;15.50;;;6.87;;
77769;SDS011;66961;51.482;9.160;2023-04-25T02:30:13;15.40;;;6.60;;
77769;SDS011;66961;51.482;9.160;2023-04-25T02:32:39;12.20;;;5.80;;
77769;SDS011;66961;51.482;9.160;2023-04-25T02:35:05;12.95;;;6.13;;
77769;SDS011;66961;51.482;9.160;2023-04-25T02:37:31;14.15;;;6.45;;
77769;SDS011;66961;51.482;9.160;2023-04-25T02:39:57;15.07;;;6.38;;
77769;SDS011;66961;51.482;9.160;2023-04-25T02:42:23;10.93;;;5.50;;
77769;SDS011;66961;51.482;9.160;2023-04-25T02:44:48;13.05;;;6.22;;
77769;SDS011;66961;51.482;9.160;2023-04-25T02:47:13;13.83;;;5.80;;
77769;SDS011;66961;51.482;9.160;2023-04-25T02:49:39;15.85;;;6.63;;
77769;SDS011;66961;51.482;9.160;2023-04-25T02:52:04;14.47;;;5.57;;
77769;SDS011;66961;51.482;9.160;2023-04-25T02:54:30;12.17;;;5.57;;
77769;SDS011;66961;51.482;9.160;2023-04-25T02:56:55;12.27;;;5.63;;
77769;SDS011;66961;51.482;9.160;2023-04-25T02:59:20;11.53;;;6.00;;
77769;SDS011;66961;51.482;9.160;2023-04-25T03:01:45;16.53;;;6.17;;
77769;SDS011;66961;51.482;9.160;2023-04-25T03:04:11;13.50;;;6.20;;
77769;SDS011;66961;51.482;9.160;2023-04-25T03:06:36;11.83;;;5.90;;
77769;SDS011;66961;51.482;9.160;2023-04-25T03:09:01;12.87;;;5.70;;
77769;SDS011;66961;51.482;9.160;2023-04-25T03:11:26;10.90;;;6.37;;
77769;SDS011;66961;51.482;9.160;2023-04-25T03:13:52;11.13;;;5.50;;
77769;SDS011;66961;51.482;9.160;2023-04-25T03:16:17;10.57;;;5.27;;
77769;SDS011;66961;51.482;9.160;2023-04-25T03:18:42;12.07;;;5.70;;
77769;SDS011;66961;51.482;9.160;2023-04-25T03:21:07;12.67;;;6.10;;
77769;SDS011;66961;51.482;9.160;2023-04-25T03:23:33;11.63;;;6.30;;
77769;SDS011;66961;51.482;9.160;2023-04-25T03:25:58;11.07;;;6.37;;
77769;SDS011;66961;51.482;9.160;2023-04-25T03:28:23;12.93;;;6.43;;
77769;SDS011;66961;51.482;9.160;2023-04-25T03:30:48;9.20;;;6.20;;
77769;SDS011;66961;51.482;9.160;2023-04-25T03:33:14;10.90;;;6.30;;
77769;SDS011;66961;51.482;9.160;2023-04-25T03:35:39;9.67;;;5.40;;
77769;SDS011;66961;51.482;9.160;2023-04-25T03:38:04;11.93;;;5.80;;
77769;SDS011;66961;51.482;9.160;2023-04-25T03:40:29;10.63;;;5.57;;
77769;SDS011;66961;51.482;9.160;2023-04-25T03:42:54;12.00;;;5.97;;
77769;SDS011;66961;51.482;9.160;2023-04-25T03:45:20;10.20;;;5.87;;
77769;SDS011;66961;51.482;9.160;2023-04-25T03:47:45;8.80;;;5.07;;
77769;SDS011;66961;51.482;9.160;2023-04-25T03:50:10;8.23;;;5.17;;
77769;SDS011;66961;51.482;9.160;2023-04-25T03:52:35;9.17;;;5.63;;
77769;SDS011;66961;51.482;9.160;2023-04-25T03:55:01;11.73;;;5.17;;
77769;SDS011;66961;51.482;9.160;2023-04-25T03:57:26;9.33;;;5.60;;
77769;SDS011;66961;51.482;9.160;2023-04-25T03:59:51;16.20;;;6.37;;
77769;SDS011;66961;51.482;9.160;2023-04-25T04:02:17;11.57;;;6.03;;
77769;SDS011;66961;51.482;9.160;2023-04-25T04:04:42;10.98;;;5.80;;
77769;SDS011;66961;51.482;9.160;2023-04-25T04:07:08;8.70;;;5.20;;
77769;SDS011;66961;51.482;9.160;2023-04-25T04:09:34;6.57;;;4.57;;
77769;SDS011;66961;51.482;9.160;2023-04-25T04:11:59;6.90;;;4.50;;
77769;SDS011;66961;51.482;9.160;2023-04-25T04:14:24;7.23;;;4.67;;
77769;SDS011;66961;51.482;9.160;2023-04-25T04:16:50;8.73;;;5.00;;
77769;SDS011;66961;51.482;9.160;2023-04-25T04:19:16;8.20;;;5.18;;
77769;SDS011;66961;51.482;9.160;2023-04-25T04:21:41;8.07;;;4.87;;
77769;SDS011;66961;51.482;9.160;2023-04-25T04:24:06;8.47;;;5.43;;
77769;SDS011;66961;51.482;9.160;2023-04-25T04:26:32;7.33;;;5.00;;
77769;SDS011;66961;51.482;9.160;2023-04-25T04:28:57;9.95;;;5.43;;
77769;SDS011;66961;51.482;9.160;2023-04-25T04:31:22;8.30;;;5.30;;
77769;SDS011;66961;51.482;9.160;2023-04-25T04:33:48;6.72;;;4.90;;
77769;SDS011;66961;51.482;9.160;2023-04-25T04:36:13;10.40;;;5.60;;
77769;SDS011;66961;51.482;9.160;2023-04-25T04:38:38;9.40;;;5.73;;
77769;SDS011;66961;51.482;9.160;2023-04-25T04:41:04;9.15;;;5.25;;
77769;SDS011;66961;51.482;9.160;2023-04-25T04:43:29;8.90;;;5.17;;
77769;SDS011;66961;51.482;9.160;2023-04-25T04:45:55;7.10;;;4.93;;
77769;SDS011;66961;51.482;9.160;2023-04-25T04:48:20;9.73;;;5.15;;
77769;SDS011;66961;51.482;9.160;2023-04-25T04:50:45;8.07;;;4.87;;
77769;SDS011;66961;51.482;9.160;2023-04-25T04:53:11;7.33;;;4.47;;
77769;SDS011;66961;51.482;9.160;2023-04-25T04:55:36;9.10;;;5.15;;
77769;SDS011;66961;51.482;9.160;2023-04-25T04:58:01;9.27;;;4.40;;
77769;SDS011;66961;51.482;9.160;2023-04-25T05:00:26;9.77;;;4.30;;
77769;SDS011;66961;51.482;9.160;2023-04-25T05:02:52;9.07;;;4.37;;
77769;SDS011;66961;51.482;9.160;2023-04-25T05:05:17;6.77;;;4.67;;
77769;SDS011;66961;51.482;9.160;2023-04-25T05:07:42;8.93;;;4.73;;
77769;SDS011;66961;51.482;9.160;2023-04-25T05:10:08;7.23;;;4.20;;
77769;SDS011;66961;51.482;9.160;2023-04-25T05:12:33;8.40;;;5.10;;
77769;SDS011;66961;51.482;9.160;2023-04-25T05:14:58;9.20;;;4.73;;
77769;SDS011;66961;51.482;9.160;2023-04-25T05:17:23;9.73;;;4.80;;
77769;SDS011;66961;51.482;9.160;2023-04-25T05:19:49;7.90;;;4.57;;
77769;SDS011;66961;51.482;9.160;2023-04-25T05:22:14;8.17;;;4.53;;
77769;SDS011;66961;51.482;9.160;2023-04-25T05:24:39;5.03;;;3.20;;
77769;SDS011;66961;51.482;9.160;2023-04-25T05:27:04;4.50;;;2.20;;
77769;SDS011;66961;51.482;9.160;2023-04-25T05:29:30;4.37;;;2.50;;
77769;SDS011;66961;51.482;9.160;2023-04-25T05:31:55;6.23;;;2.77;;
77769;SDS011;66961;51.482;9.160;2023-04-25T05:34:20;5.47;;;2.67;;
77769;SDS011;66961;51.482;9.160;2023-04-25T05:36:45;5.40;;;2.80;;
77769;SDS011;66961;51.482;9.160;2023-04-25T05:39:10;6.40;;;2.80;;
77769;SDS011;66961;51.482;9.160;2023-04-25T05:41:36;7.97;;;2.87;;
77769;SDS011;66961;51.482;9.160;2023-04-25T05:44:01;6.27;;;3.23;;
77769;SDS011;66961;51.482;9.160;2023-04-25T05:46:26;6.70;;;3.10;;
77769;SDS011;66961;51.482;9.160;2023-04-25T05:48:51;11.90;;;3.90;;
77769;SDS011;66961;51.482;9.160;2023-04-25T05:51:16;9.33;;;3.63;;
77769;SDS011;66961;51.482;9.160;2023-04-25T05:53:42;14.50;;;4.80;;
77769;SDS011;66961;51.482;9.160;2023-04-25T05:56:07;12.47;;;4.60;;
77769;SDS011;66961;51.482;9.160;2023-04-25T05:58:33;11.30;;;4.43;;
77769;SDS011;66961;51.482;9.160;2023-04-25T06:00:58;10.73;;;4.30;;
77769;SDS011;66961;51.482;9.160;2023-04-25T06:03:23;9.90;;;4.30;;
77769;SDS011;66961;51.482;9.160;2023-04-25T06:05:48;9.77;;;4.73;;
77769;SDS011;66961;51.482;9.160;2023-04-25T06:08:14;16.27;;;4.80;;
77769;SDS011;66961;51.482;9.160;2023-04-25T06:10:39;21.43;;;5.87;;
77769;SDS011;66961;51.482;9.160;2023-04-25T06:13:04;17.70;;;6.25;;
77769;SDS011;66961;51.482;9.160;2023-04-25T06:15:30;12.90;;;5.82;;
77769;SDS011;66961;51.482;9.160;2023-04-25T06:17:55;15.00;;;5.63;;
77769;SDS011;66961;51.482;9.160;2023-04-25T06:20:20;11.63;;;5.13;;
77769;SDS011;66961;51.482;9.160;2023-04-25T06:22:46;16.27;;;5.50;;
77769;SDS011;66961;51.482;9.160;2023-04-25T06:25:11;13.77;;;6.00;;
77769;SDS011;66961;51.482;9.160;2023-04-25T06:27:36;17.77;;;5.33;;
77769;SDS011;66961;51.482;9.160;2023-04-25T06:30:01;11.10;;;5.30;;
77769;SDS011;66961;51.482;9.160;2023-04-25T06:32:27;13.80;;;5.13;;
77769;SDS011;66961;51.482;9.160;2023-04-25T06:34:52;12.60;;;5.17;;
77769;SDS011;66961;51.482;9.160;2023-04-25T06:37:17;17.33;;;5.40;;
77769;SDS011;66961;51.482;9.160;2023-04-25T06:39:42;15.30;;;5.40;;
77769;SDS011;66961;51.482;9.160;2023-04-25T06:42:07;17.17;;;5.00;;
77769;SDS011;66961;51.482;9.160;2023-04-25T06:44:33;18.43;;;5.93;;
77769;SDS011;66961;51.482;9.160;2023-04-25T06:46:58;11.73;;;4.60;;
77769;SDS011;66961;51.482;9.160;2023-04-25T06:49:23;18.70;;;5.60;;
77769;SDS011;66961;51.482;9.160;2023-04-25T06:51:48;19.03;;;5.43;;
77769;SDS011;66961;51.482;9.160;2023-04-25T06:54:14;13.77;;;4.57;;
77769;SDS011;66961;51.482;9.160;2023-04-25T06:56:39;13.50;;;4.60;;
77769;SDS011;66961;51.482;9.160;2023-04-25T06:59:04;16.33;;;4.23;;
77769;SDS011;66961;51.482;9.160;2023-04-25T07:01:29;15.97;;;4.47;;
77769;SDS011;66961;51.482;9.160;2023-04-25T07:03:55;14.53;;;3.60;;
77769;SDS011;66961;51.482;9.160;2023-04-25T07:06:20;16.47;;;4.40;;
77769;SDS011;66961;51.482;9.160;2023-04-25T07:08:45;14.97;;;3.67;;
77769;SDS011;66961;51.482;9.160;2023-04-25T07:11:10;14.70;;;3.63;;
77769;SDS011;66961;51.482;9.160;2023-04-25T07:13:35;19.57;;;5.00;;
77769;SDS011;66961;51.482;9.160;2023-04-25T07:16:01;14.20;;;3.83;;
77769;SDS011;66961;51.482;9.160;2023-04-25T07:18:26;14.97;;;4.30;;
77769;SDS011;66961;51.482;9.160;2023-04-25T07:20:51;16.23;;;4.00;;
77769;SDS011;66961;51.482;9.160;2023-04-25T07:23:16;13.20;;;3.93;;
77769;SDS011;66961;51.482;9.160;2023-04-25T07:25:42;13.77;;;3.80;;
77769;SDS011;66961;51.482;9.160;2023-04-25T07:28:07;17.20;;;4.13;;
77769;SDS011;66961;51.482;9.160;2023-04-25T07:30:32;13.07;;;3.43;;
77769;SDS011;66961;51.482;9.160;2023-04-25T07:32:57;10.80;;;3.97;;
77769;SDS011;66961;51.482;9.160;2023-04-25T07:35:22;12.47;;;4.43;;
77769;SDS011;66961;51.482;9.160;2023-04-25T07:37:48;18.07;;;3.20;;
77769;SDS011;66961;51.482;9.160;2023-04-25T07:40:13;13.53;;;3.67;;
77769;SDS011;66961;51.482;9.160;2023-04-25T07:42:38;11.53;;;3.33;;
77769;SDS011;66961;51.482;9.160;2023-04-25T07:45:04;14.30;;;3.60;;
77769;SDS011;66961;51.482;9.160;2023-04-25T07:47:29;13.20;;;4.00;;
77769;SDS011;66961;51.482;9.160;2023-04-25T07:49:54;18.67;;;3.43;;
77769;SDS011;66961;51.482;9.160;2023-04-25T07:52:19;11.43;;;3.47;;
77769;SDS011;66961;51.482;9.160;2023-04-25T07:54:45;12.30;;;3.67;;
77769;SDS011;66961;51.482;9.160;2023-04-25T07:57:10;10.83;;;3.07;;
77769;SDS011;66961;51.482;9.160;2023-04-25T07:59:35;11.77;;;3.40;;
77769;SDS011;66961;51.482;9.160;2023-04-25T08:02:00;9.77;;;3.27;;
77769;SDS011;66961;51.482;9.160;2023-04-25T08:04:26;14.13;;;3.60;;
77769;SDS011;66961;51.482;9.160;2023-04-25T08:06:52;11.77;;;3.90;;
77769;SDS011;66961;51.482;9.160;2023-04-25T08:09:17;12.00;;;3.63;;
77769;SDS011;66961;51.482;9.160;2023-04-25T08:11:43;11.32;;;3.13;;
77769;SDS011;66961;51.482;9.160;2023-04-25T08:14:08;12.33;;;3.30;;
77769;SDS011;66961;51.482;9.160;2023-04-25T08:16:33;11.43;;;3.63;;
77769;SDS011;66961;51.482;9.160;2023-04-25T08:18:59;13.33;;;3.37;;
77769;SDS011;66961;51.482;9.160;2023-04-25T08:21:24;14.00;;;3.28;;
77769;SDS011;66961;51.482;9.160;2023-04-25T08:23:49;14.27;;;3.57;;
77769;SDS011;66961;51.482;9.160;2023-04-25T08:26:15;8.37;;;2.80;;
77769;SDS011;66961;51.482;9.160;2023-04-25T08:28:40;12.77;;;2.87;;
77769;SDS011;66961;51.482;9.160;2023-04-25T08:31:05;11.10;;;2.80;;
77769;SDS011;66961;51.482;9.160;2023-04-25T08:33:30;9.77;;;2.73;;
77769;SDS011;66961;51.482;9.160;2023-04-25T08:35:56;9.23;;;2.90;;
77769;SDS011;66961;51.482;9.160;2023-04-25T08:38:21;12.63;;;3.00;;
77769;SDS011;66961;51.482;9.160;2023-04-25T08:40:48;11.50;;;2.53;;
77769;SDS011;66961;51.482;9.160;2023-04-25T08:43:15;11.57;;;2.80;;
77769;SDS011;66961;51.482;9.160;2023-04-25T08:45:44;12.38;;;3.30;;
77769;SDS011;66961;51.482;9.160;2023-04-25T08:48:13;8.07;;;2.50;;
77769;SDS011;66961;51.482;9.160;2023-04-25T08:50:39;10.38;;;3.35;;
77769;SDS011;66961;51.482;9.160;2023-04-25T08:53:09;7.95;;;2.80;;
77769;SDS011;66961;51.482;9.160;2023-04-25T08:55:37;10.48;;;2.42;;
77769;SDS011;66961;51.482;9.160;2023-04-25T08:58:06;12.63;;;2.80;;
77769;SDS011;66961;51.482;9.160;2023-04-25T09:00:32;13.32;;;2.53;;
77769;SDS011;66961;51.482;9.160;2023-04-25T09:02:58;12.00;;;2.93;;
77769;SDS011;66961;51.482;9.160;2023-04-25T09:05:24;13.45;;;3.53;;
77769;SDS011;66961;51.482;9.160;2023-04-25T09:07:49;11.25;;;3.63;;
77769;SDS011;66961;51.482;9.160;2023-04-25T09:10:14;11.17;;;2.70;;
77769;SDS011;66961;51.482;9.160;2023-04-25T09:12:40;13.53;;;3.10;;
77769;SDS011;66961;51.482;9.160;2023-04-25T09:15:06;13.03;;;3.13;;
77769;SDS011;66961;51.482;9.160;2023-04-25T09:17:35;12.13;;;2.92;;
77769;SDS011;66961;51.482;9.160;2023-04-25T09:20:07;12.40;;;3.07;;
77769;SDS011;66961;51.482;9.160;2023-04-25T09:22:34;13.43;;;2.75;;
77769;SDS011;66961;51.482;9.160;2023-04-25T09:25:02;13.07;;;2.90;;
77769;SDS011;66961;51.482;9.160;2023-04-25T09:27:48;9.70;;;2.53;;
77769;SDS011;66961;51.482;9.160;2023-04-25T09:30:15;10.23;;;2.83;;
77769;SDS011;66961;51.482;9.160;2023-04-25T09:32:41;8.57;;;2.40;;
77769;SDS011;66961;51.482;9.160;2023-04-25T09:35:07;9.43;;;2.17;;
77769;SDS011;66961;51.482;9.160;2023-04-25T09:37:32;11.73;;;2.43;;
77769;SDS011;66961;51.482;9.160;2023-04-25T09:39:59;9.30;;;2.38;;
77769;SDS011;66961;51.482;9.160;2023-04-25T09:42:26;11.93;;;2.35;;
77769;SDS011;66961;51.482;9.160;2023-04-25T09:44:53;8.27;;;2.95;;
77769;SDS011;66961;51.482;9.160;2023-04-25T09:47:19;8.32;;;1.85;;
77769;SDS011;66961;51.482;9.160;2023-04-25T09:49:44;8.82;;;2.05;;
77769;SDS011;66961;51.482;9.160;2023-04-25T09:52:22;7.30;;;2.13;;
77769;SDS011;66961;51.482;9.160;2023-04-25T09:54:49;5.32;;;1.88;;
77769;SDS011;66961;51.482;9.160;2023-04-25T09:57:18;6.68;;;1.80;;
77769;SDS011;66961;51.482;9.160;2023-04-25T09:59:48;7.20;;;2.38;;
77769;SDS011;66961;51.482;9.160;2023-04-25T10:02:18;6.60;;;1.73;;
77769;SDS011;66961;51.482;9.160;2023-04-25T10:04:44;5.40;;;1.58;;
77769;SDS011;66961;51.482;9.160;2023-04-25T10:07:13;6.68;;;1.58;;
77769;SDS011;66961;51.482;9.160;2023-04-25T10:09:39;6.07;;;2.63;;
77769;SDS011;66961;51.482;9.160;2023-04-25T10:12:05;8.45;;;1.90;;
77769;SDS011;66961;51.482;9.160;2023-04-25T10:14:32;6.50;;;1.70;;
77769;SDS011;66961;51.482;9.160;2023-04-25T10:16:58;4.75;;;1.90;;
77769;SDS011;66961;51.482;9.160;2023-04-25T10:19:24;6.55;;;1.30;;
77769;SDS011;66961;51.482;9.160;2023-04-25T10:22:04;3.67;;;1.33;;
77769;SDS011;66961;51.482;9.160;2023-04-25T10:24:33;6.75;;;1.20;;
77769;SDS011;66961;51.482;9.160;2023-04-25T10:27:00;7.80;;;1.80;;
77769;SDS011;66961;51.482;9.160;2023-04-25T10:29:27;5.57;;;1.40;;
77769;SDS011;66961;51.482;9.160;2023-04-25T10:31:52;6.60;;;1.75;;
77769;SDS011;66961;51.482;9.160;2023-04-25T10:34:18;4.13;;;1.40;;
77769;SDS011;66961;51.482;9.160;2023-04-25T10:36:49;7.13;;;1.77;;
77769;SDS011;66961;51.482;9.160;2023-04-25T10:39:15;4.35;;;1.25;;
77769;SDS011;66961;51.482;9.160;2023-04-25T10:41:47;6.35;;;1.58;;
77769;SDS011;66961;51.482;9.160;2023-04-25T10:44:17;5.53;;;1.42;;
77769;SDS011;66961;51.482;9.160;2023-04-25T10:46:42;9.43;;;2.00;;
77769;SDS011;66961;51.482;9.160;2023-04-25T10:49:09;5.63;;;1.27;;
77769;SDS011;66961;51.482;9.160;2023-04-25T10:51:34;7.57;;;1.40;;
77769;SDS011;66961;51.482;9.160;2023-04-25T10:54:02;4.53;;;1.40;;
77769;SDS011;66961;51.482;9.160;2023-04-25T10:56:40;5.97;;;1.48;;
77769;SDS011;66961;51.482;9.160;2023-04-25T10:59:19;5.10;;;1.50;;
77769;SDS011;66961;51.482;9.160;2023-04-25T11:01:45;7.00;;;1.58;;
77769;SDS011;66961;51.482;9.160;2023-04-25T11:04:25;7.13;;;2.00;;
77769;SDS011;66961;51.482;9.160;2023-04-25T11:09:35;5.95;;;1.42;;
77769;SDS011;66961;51.482;9.160;2023-04-25T11:12:02;6.78;;;1.60;;
77769;SDS011;66961;51.482;9.160;2023-04-25T11:14:28;7.75;;;1.45;;
77769;SDS011;66961;51.482;9.160;2023-04-25T11:16:53;8.27;;;1.88;;
77769;SDS011;66961;51.482;9.160;2023-04-25T11:19:23;4.20;;;1.25;;
77769;SDS011;66961;51.482;9.160;2023-04-25T11:21:49;6.18;;;1.35;;
77769;SDS011;66961;51.482;9.160;2023-04-25T11:24:15;7.83;;;1.53;;
77769;SDS011;66961;51.482;9.160;2023-04-25T11:26:41;3.95;;;1.50;;
77769;SDS011;66961;51.482;9.160;2023-04-25T11:29:07;9.70;;;2.10;;
77769;SDS011;66961;51.482;9.160;2023-04-25T11:31:33;6.23;;;1.60;;
77769;SDS011;66961;51.482;9.160;2023-04-25T11:33:58;8.50;;;1.77;;
77769;SDS011;66961;51.482;9.160;2023-04-25T11:36:24;6.18;;;1.48;;
77769;SDS011;66961;51.482;9.160;2023-04-25T11:38:50;4.55;;;1.50;;
77769;SDS011;66961;51.482;9.160;2023-04-25T11:41:16;6.57;;;1.70;;
77769;SDS011;66961;51.482;9.160;2023-04-25T11:43:42;9.60;;;2.13;;
77769;SDS011;66961;51.482;9.160;2023-04-25T11:46:08;7.57;;;1.73;;
77769;SDS011;66961;51.482;9.160;2023-04-25T11:48:42;7.27;;;2.27;;
77769;SDS011;66961;51.482;9.160;2023-04-25T11:51:08;2.75;;;1.40;;
77769;SDS011;66961;51.482;9.160;2023-04-25T11:53:35;6.47;;;1.92;;
77769;SDS011;66961;51.482;9.160;2023-04-25T11:56:00;5.10;;;1.67;;
77769;SDS011;66961;51.482;9.160;2023-04-25T11:58:26;5.90;;;1.92;;
77769;SDS011;66961;51.482;9.160;2023-04-25T12:00:51;4.13;;;1.30;;
77769;SDS011;66961;51.482;9.160;2023-04-25T12:03:17;5.43;;;1.90;;
77769;SDS011;66961;51.482;9.160;2023-04-25T12:05:44;6.85;;;1.58;;
77769;SDS011;66961;51.482;9.160;2023-04-25T12:08:11;8.38;;;2.00;;
77769;SDS011;66961;51.482;9.160;2023-04-25T12:10:37;6.88;;;1.95;;
77769;SDS011;66961;51.482;9.160;2023-04-25T12:13:17;3.97;;;1.40;;
77769;SDS011;66961;51.482;9.160;2023-04-25T12:15:49;4.95;;;1.50;;
77769;SDS011;66961;51.482;9.160;2023-04-25T12:18:14;4.73;;;1.80;;
77769;SDS011;66961;51.482;9.160;2023-04-25T12:20:39;5.87;;;1.73;;
77769;SDS011;66961;51.482;9.160;2023-04-25T12:23:06;6.93;;;1.60;;
77769;SDS011;66961;51.482;9.160;2023-04-25T12:28:17;3.35;;;1.50;;
77769;SDS011;66961;51.482;9.160;2023-04-25T12:33:23;7.28;;;1.67;;
77769;SDS011;66961;51.482;9.160;2023-04-25T12:35:48;5.00;;;1.40;;
77769;SDS011;66961;51.482;9.160;2023-04-25T12:38:26;4.93;;;1.90;;
77769;SDS011;66961;51.482;9.160;2023-04-25T12:40:54;4.90;;;1.75;;
77769;SDS011;66961;51.482;9.160;2023-04-25T12:43:19;4.13;;;1.30;;
77769;SDS011;66961;51.482;9.160;2023-04-25T12:45:47;6.57;;;1.70;;
77769;SDS011;66961;51.482;9.160;2023-04-25T12:48:12;3.28;;;1.33;;
77769;SDS011;66961;51.482;9.160;2023-04-25T12:50:38;4.70;;;1.43;;
77769;SDS011;66961;51.482;9.160;2023-04-25T12:53:03;3.83;;;1.30;;
77769;SDS011;66961;51.482;9.160;2023-04-25T12:55:28;7.53;;;2.00;;
77769;SDS011;66961;51.482;9.160;2023-04-25T12:57:53;5.10;;;1.97;;
77769;SDS011;66961;51.482;9.160;2023-04-25T13:00:19;6.03;;;2.20;;
77769;SDS011;66961;51.482;9.160;2023-04-25T13:02:44;5.65;;;2.50;;
77769;SDS011;66961;51.482;9.160;2023-04-25T13:05:09;7.87;;;1.80;;
77769;SDS011;66961;51.482;9.160;2023-04-25T13:07:34;4.90;;;1.50;;
77769;SDS011;66961;51.482;9.160;2023-04-25T13:10:01;6.40;;;1.90;;
77769;SDS011;66961;51.482;9.160;2023-04-25T13:12:26;5.53;;;1.77;;
77769;SDS011;66961;51.482;9.160;2023-04-25T13:14:51;6.07;;;1.53;;
77769;SDS011;66961;51.482;9.160;2023-04-25T13:17:16;6.90;;;1.70;;
77769;SDS011;66961;51.482;9.160;2023-04-25T13:19:42;4.97;;;1.53;;
77769;SDS011;66961;51.482;9.160;2023-04-25T13:22:07;7.30;;;2.00;;
77769;SDS011;66961;51.482;9.160;2023-04-25T13:24:32;7.43;;;1.80;;
77769;SDS011;66961;51.482;9.160;2023-04-25T13:26:57;5.83;;;1.93;;
77769;SDS011;66961;51.482;9.160;2023-04-25T13:29:22;4.77;;;1.40;;
77769;SDS011;66961;51.482;9.160;2023-04-25T13:31:48;6.80;;;1.60;;
77769;SDS011;66961;51.482;9.160;2023-04-25T13:34:13;6.20;;;1.37;;
77769;SDS011;66961;51.482;9.160;2023-04-25T13:36:38;3.63;;;1.57;;
77769;SDS011;66961;51.482;9.160;2023-04-25T13:39:03;5.83;;;1.40;;
77769;SDS011;66961;51.482;9.160;2023-04-25T13:41:29;5.40;;;1.43;;
77769;SDS011;66961;51.482;9.160;2023-04-25T13:43:54;9.37;;;1.67;;
77769;SDS011;66961;51.482;9.160;2023-04-25T13:46:19;6.33;;;1.57;;
77769;SDS011;66961;51.482;9.160;2023-04-25T13:48:44;3.33;;;1.13;;
77769;SDS011;66961;51.482;9.160;2023-04-25T13:51:09;5.10;;;2.40;;
77769;SDS011;66961;51.482;9.160;2023-04-25T13:53:35;5.57;;;1.83;;
77769;SDS011;66961;51.482;9.160;2023-04-25T13:56:00;4.47;;;1.80;;
77769;SDS011;66961;51.482;9.160;2023-04-25T13:58:25;4.17;;;1.27;;
77769;SDS011;66961;51.482;9.160;2023-04-25T14:00:50;4.27;;;1.90;;
77769;SDS011;66961;51.482;9.160;2023-04-25T14:03:16;5.00;;;1.47;;
77769;SDS011;66961;51.482;9.160;2023-04-25T14:05:41;4.97;;;1.30;;
77769;SDS011;66961;51.482;9.160;2023-04-25T14:08:07;6.78;;;1.65;;
77769;SDS011;66961;51.482;9.160;2023-04-25T14:10:33;6.80;;;1.77;;
77769;SDS011;66961;51.482;9.160;2023-04-25T14:12:59;3.25;;;1.40;;
77769;SDS011;66961;51.482;9.160;2023-04-25T14:15:24;3.23;;;1.40;;
77769;SDS011;66961;51.482;9.160;2023-04-25T14:17:49;4.53;;;1.60;;
77769;SDS011;66961;51.482;9.160;2023-04-25T14:20:14;5.00;;;1.20;;
77769;SDS011;66961;51.482;9.160;2023-04-25T14:22:40;4.60;;;1.40;;
77769;SDS011;66961;51.482;9.160;2023-04-25T14:25:05;4.50;;;1.27;;
77769;SDS011;66961;51.482;9.160;2023-04-25T14:27:31;3.47;;;1.02;;
77769;SDS011;66961;51.482;9.160;2023-04-25T14:29:56;3.33;;;1.20;;
77769;SDS011;66961;51.482;9.160;2023-04-25T14:32:21;5.53;;;1.47;;
77769;SDS011;66961;51.482;9.160;2023-04-25T14:34:46;4.03;;;1.00;;
77769;SDS011;66961;51.482;9.160;2023-04-25T14:37:11;2.97;;;0.90;;
77769;SDS011;66961;51.482;9.160;2023-04-25T14:39:37;5.67;;;1.23;;
77769;SDS011;66961;51.482;9.160;2023-04-25T14:42:02;6.53;;;1.40;;